createdAt,value
2018-04-15T00:00:34.750Z,35.73
2018-04-15T00:01:39.242Z,36.40
2018-04-15T00:02:43.550Z,34.83
2018-04-15T00:03:48.693Z,33.60
2018-04-15T00:04:54.654Z,33.27
2018-04-15T00:05:59.457Z,33.60
2018-04-15T00:07:03.862Z,32.83
2018-04-15T00:08:08.838Z,33.60
2018-04-15T00:09:13.093Z,33.73
2018-04-15T00:10:20.235Z,35.73
2018-04-15T00:11:26.046Z,32.90
2018-04-15T00:12:31.163Z,35.07
2018-04-15T00:13:35.576Z,33.20
2018-04-15T00:14:40.943Z,35.17
2018-04-15T00:15:45.141Z,32.50
2018-04-15T00:16:51.580Z,35.00
2018-04-15T00:17:57.366Z,36.20
2018-04-15T00:19:02.713Z,33.03
2018-04-15T00:20:07.016Z,33.17
2018-04-15T00:21:11.297Z,36.17
2018-04-15T00:22:16.256Z,36.33
2018-04-15T00:23:22.331Z,35.87
2018-04-15T00:24:27.311Z,34.20
2018-04-15T00:25:32.559Z,33.97
2018-04-15T00:26:37.796Z,34.13
2018-04-15T00:27:41.997Z,35.00
2018-04-15T00:28:46.441Z,33.30
2018-04-15T00:29:54.324Z,34.70
2018-04-15T00:30:59.245Z,33.10
2018-04-15T00:32:03.881Z,34.20
2018-04-15T00:33:08.092Z,34.20
2018-04-15T00:34:12.280Z,36.20
2018-04-15T00:35:18.125Z,36.00
2018-04-15T00:36:25.804Z,35.77
2018-04-15T00:37:30.969Z,34.00
2018-04-15T00:38:36.041Z,36.80
2018-04-15T00:39:40.506Z,34.77
2018-04-15T00:40:44.696Z,34.47
2018-04-15T00:41:53.254Z,35.07
2018-04-15T00:42:57.874Z,33.77
2018-04-15T00:44:03.944Z,32.33
2018-04-15T00:45:08.318Z,33.77
2018-04-15T00:46:12.517Z,32.67
2018-04-15T00:47:18.632Z,32.10
2018-04-15T00:48:25.342Z,31.87
2018-04-15T00:49:31.209Z,34.37
2018-04-15T00:50:35.562Z,33.87
2018-04-15T00:51:39.793Z,35.10
2018-04-15T00:52:44.151Z,35.50
2018-04-15T00:54:06.159Z,33.77
2018-04-15T00:55:10.385Z,33.50
2018-04-15T00:56:14.587Z,32.40
2018-04-15T00:57:21.132Z,34.90
2018-04-15T00:58:26.472Z,33.37
2018-04-15T00:59:31.429Z,35.50
2018-04-15T01:00:35.833Z,31.90
2018-04-15T01:01:40.161Z,32.90
2018-04-15T01:02:44.359Z,33.07
2018-04-15T01:03:50.157Z,33.03
2018-04-15T01:04:55.140Z,35.60
2018-04-15T01:06:00.097Z,32.07
2018-04-15T01:07:04.593Z,34.17
2018-04-15T01:08:08.909Z,33.77
2018-04-15T01:09:13.105Z,33.80
2018-04-15T01:10:21.847Z,32.60
2018-04-15T01:11:28.162Z,32.27
2018-04-15T01:12:32.705Z,34.10
2018-04-15T01:13:36.991Z,32.87
2018-04-15T01:14:41.198Z,31.97
2018-04-15T01:15:45.428Z,32.20
2018-04-15T01:16:51.248Z,33.70
2018-04-15T01:17:56.670Z,38.20
2018-04-15T01:19:01.562Z,34.07
2018-04-15T01:20:05.878Z,33.63
2018-04-15T01:21:10.111Z,34.93
2018-04-15T01:22:14.339Z,32.97
2018-04-15T01:23:20.897Z,34.23
2018-04-15T01:24:25.924Z,32.67
2018-04-15T01:25:30.348Z,34.20
2018-04-15T01:26:35.373Z,33.20
2018-04-15T01:27:40.394Z,34.13
2018-04-15T01:28:44.770Z,32.57
2018-04-15T01:29:50.226Z,34.40
2018-04-15T01:30:55.822Z,35.40
2018-04-15T01:32:00.184Z,33.17
2018-04-15T01:33:04.701Z,33.33
2018-04-15T01:34:08.922Z,36.30
2018-04-15T01:35:13.272Z,33.70
2018-04-15T01:36:18.755Z,33.37
2018-04-15T01:37:25.558Z,33.10
2018-04-15T01:38:30.146Z,34.83
2018-04-15T01:39:34.662Z,33.80
2018-04-15T01:40:38.875Z,34.33
2018-04-15T01:41:43.101Z,34.77
2018-04-15T01:42:47.830Z,34.93
2018-04-15T01:43:52.839Z,32.30
2018-04-15T01:44:57.505Z,34.67
2018-04-15T01:46:03.011Z,36.77
2018-04-15T01:47:07.221Z,37.63
2018-04-15T01:48:11.467Z,38.67
2018-04-15T01:49:15.675Z,37.60
2018-04-15T01:50:21.382Z,33.97
2018-04-15T01:51:26.391Z,35.70
2018-04-15T01:52:31.042Z,35.67
2018-04-15T01:53:35.438Z,37.90
2018-04-15T01:54:39.657Z,35.40
2018-04-15T01:55:43.858Z,37.30
2018-04-15T01:56:49.781Z,34.80
2018-04-15T01:57:56.750Z,34.87
2018-04-15T01:59:01.203Z,35.80
2018-04-15T02:00:05.496Z,36.17
2018-04-15T02:01:09.718Z,36.30
2018-04-15T02:02:14.853Z,34.30
2018-04-15T02:03:20.643Z,36.17
2018-04-15T02:04:26.258Z,35.90
2018-04-15T02:05:32.033Z,35.73
2018-04-15T02:06:36.475Z,35.23
2018-04-15T02:07:40.829Z,35.10
2018-04-15T02:08:45.549Z,37.70
2018-04-15T02:09:51.895Z,36.80
2018-04-15T02:10:57.039Z,35.10
2018-04-15T02:12:01.943Z,37.00
2018-04-15T02:13:06.933Z,35.43
2018-04-15T02:14:11.123Z,37.07
2018-04-15T02:15:15.329Z,36.80
2018-04-15T02:16:20.011Z,39.17
2018-04-15T02:17:26.038Z,37.23
2018-04-15T02:18:30.959Z,38.13
2018-04-15T02:19:35.417Z,36.90
2018-04-15T02:20:39.681Z,38.57
2018-04-15T02:21:43.873Z,37.00
2018-04-15T02:22:49.134Z,38.20
2018-04-15T02:23:55.355Z,35.17
2018-04-15T02:25:00.512Z,37.07
2018-04-15T02:26:05.122Z,36.70
2018-04-15T02:27:09.326Z,39.10
2018-04-15T02:28:13.528Z,38.37
2018-04-15T02:29:18.159Z,41.23
2018-04-15T02:30:24.677Z,40.57
2018-04-15T02:31:30.072Z,40.40
2018-04-15T02:32:34.378Z,39.73
2018-04-15T02:33:38.691Z,40.73
2018-04-15T02:34:43.094Z,40.10
2018-04-15T02:35:48.853Z,42.37
2018-04-15T02:36:53.710Z,41.13
2018-04-15T02:37:58.572Z,42.50
2018-04-15T02:39:03.807Z,41.33
2018-04-15T02:40:08.805Z,43.00
2018-04-15T02:41:13.029Z,42.70
2018-04-15T02:42:17.966Z,41.57
2018-04-15T02:43:24.184Z,40.90
2018-04-15T02:44:29.178Z,39.40
2018-04-15T02:45:34.461Z,40.90
2018-04-15T02:46:38.833Z,41.00
2018-04-15T02:47:43.120Z,42.47
2018-04-15T02:48:49.334Z,38.07
2018-04-15T02:49:56.227Z,38.50
2018-04-15T02:51:01.176Z,42.20
2018-04-15T02:52:05.562Z,41.50
2018-04-15T02:53:09.886Z,42.40
2018-04-15T02:54:14.078Z,37.87
2018-04-15T02:55:21.939Z,39.37
2018-04-15T02:56:26.810Z,41.80
2018-04-15T02:57:31.696Z,40.17
2018-04-15T02:58:36.002Z,38.97
2018-04-15T02:59:40.964Z,39.90
2018-04-15T03:00:45.158Z,42.03
2018-04-15T03:01:51.554Z,42.70
2018-04-15T03:02:57.485Z,45.57
2018-04-15T03:04:02.747Z,43.60
2018-04-15T03:05:07.318Z,43.17
2018-04-15T03:06:11.627Z,42.57
2018-04-15T03:07:15.835Z,44.53
2018-04-15T03:08:22.770Z,43.57
2018-04-15T03:09:27.664Z,43.10
2018-04-15T03:10:32.160Z,40.67
2018-04-15T03:11:36.516Z,40.03
2018-04-15T03:12:40.806Z,43.33
2018-04-15T03:13:45.026Z,46.20
2018-04-15T03:14:51.558Z,44.90
2018-04-15T03:15:56.601Z,44.37
2018-04-15T03:17:01.579Z,42.70
2018-04-15T03:18:06.624Z,44.03
2018-04-15T03:19:11.694Z,42.23
2018-04-15T03:20:15.911Z,43.60
2018-04-15T03:21:21.799Z,45.27
2018-04-15T03:22:27.166Z,43.03
2018-04-15T03:23:32.420Z,46.77
2018-04-15T03:24:36.666Z,42.47
2018-04-15T03:25:40.874Z,44.47
2018-04-15T03:26:45.097Z,46.53
2018-04-15T03:27:50.750Z,46.57
2018-04-15T03:28:55.998Z,44.10
2018-04-15T03:30:00.755Z,48.37
2018-04-15T03:31:05.914Z,48.00
2018-04-15T03:32:10.140Z,49.43
2018-04-15T03:33:14.505Z,49.87
2018-04-15T03:34:19.512Z,46.40
2018-04-15T03:35:25.346Z,46.83
2018-04-15T03:36:29.881Z,46.87
2018-04-15T03:37:34.684Z,52.13
2018-04-15T03:38:39.704Z,45.20
2018-04-15T03:39:43.904Z,47.50
2018-04-15T03:40:49.258Z,46.27
2018-04-15T03:41:55.014Z,47.30
2018-04-15T03:43:00.929Z,46.90
2018-04-15T03:44:05.598Z,48.90
2018-04-15T03:45:09.815Z,46.53
2018-04-15T03:46:14.799Z,50.87
2018-04-15T03:47:21.266Z,47.93
2018-04-15T03:48:26.275Z,47.90
2018-04-15T03:49:30.624Z,48.50
2018-04-15T03:50:34.940Z,50.33
2018-04-15T03:51:39.334Z,50.40
2018-04-15T03:52:43.537Z,49.87
2018-04-15T03:53:49.258Z,51.30
2018-04-15T03:54:55.980Z,48.83
2018-04-15T03:56:01.647Z,48.63
2018-04-15T03:57:06.300Z,50.00
2018-04-15T03:58:10.579Z,49.43
2018-04-15T03:59:15.640Z,48.87
2018-04-15T04:00:24.078Z,47.30
2018-04-15T04:01:29.309Z,49.13
2018-04-15T04:02:34.557Z,50.30
2018-04-15T04:03:38.833Z,49.03
2018-04-15T04:04:43.042Z,48.50
2018-04-15T04:05:51.303Z,49.87
2018-04-15T04:06:56.911Z,46.73
2018-04-15T04:08:02.465Z,48.33
2018-04-15T04:09:07.876Z,48.77
2018-04-15T04:10:12.078Z,50.10
2018-04-15T04:11:18.268Z,49.23
2018-04-15T04:12:25.955Z,50.10
2018-04-15T04:13:31.794Z,48.50
2018-04-15T04:14:36.536Z,48.23
2018-04-15T04:15:41.029Z,51.50
2018-04-15T04:16:45.348Z,52.83
2018-04-15T04:18:08.832Z,52.17
2018-04-15T04:21:15.585Z,48.67
2018-04-15T04:22:41.008Z,48.83
2018-04-15T04:24:04.422Z,48.83
2018-04-15T04:27:00.448Z,52.33
2018-04-15T04:28:07.640Z,52.40
2018-04-15T04:29:12.635Z,52.43
2018-04-15T04:30:17.877Z,52.10
2018-04-15T04:31:28.020Z,52.37
2018-04-15T04:32:37.043Z,52.17
2018-04-15T04:33:41.287Z,52.70
2018-04-15T04:34:45.514Z,54.10
2018-04-15T04:35:56.923Z,55.37
2018-04-15T04:37:03.613Z,51.40
2018-04-15T04:38:09.563Z,49.27
2018-04-15T04:39:13.807Z,49.30
2018-04-15T04:40:25.519Z,57.00
2018-04-15T04:41:33.107Z,54.63
2018-04-15T04:42:38.561Z,53.33
2018-04-15T04:43:43.011Z,53.57
2018-04-15T04:44:51.150Z,54.63
2018-04-15T04:45:58.633Z,54.27
2018-04-15T04:47:06.144Z,57.57
2018-04-15T04:48:11.177Z,56.80
2018-04-15T04:49:15.385Z,55.23
2018-04-15T04:50:27.432Z,55.70
2018-04-15T04:51:34.736Z,55.63
2018-04-15T04:52:39.271Z,56.33
2018-04-15T04:53:43.473Z,57.03
2018-04-15T04:54:55.138Z,59.80
2018-04-15T04:56:02.486Z,54.70
2018-04-15T04:57:07.130Z,54.13
2018-04-15T04:58:11.356Z,56.90
2018-04-15T04:59:15.579Z,53.60
2018-04-15T05:00:27.093Z,57.80
2018-04-15T05:01:34.410Z,57.30
2018-04-15T05:02:38.841Z,53.47
2018-04-15T05:03:43.069Z,55.43
2018-04-15T05:04:50.672Z,52.77
2018-04-15T05:05:59.076Z,54.70
2018-04-15T05:07:05.112Z,54.53
2018-04-15T05:08:09.775Z,56.63
2018-04-15T05:09:14.116Z,54.53
2018-04-15T05:10:33.505Z,53.60
2018-04-15T05:11:38.215Z,54.10
2018-04-15T05:12:42.527Z,57.03
2018-04-15T05:13:48.475Z,55.33
2018-04-15T05:15:03.741Z,54.10
2018-04-15T05:16:08.396Z,52.80
2018-04-15T05:17:12.665Z,56.57
2018-04-15T05:19:38.328Z,53.23
2018-04-15T05:20:42.651Z,55.50
2018-04-15T05:21:47.040Z,55.50
2018-04-15T05:22:57.757Z,57.20
2018-04-15T05:24:06.218Z,57.63
2018-04-15T05:25:10.481Z,55.47
2018-04-15T05:26:14.754Z,56.30
2018-04-15T05:27:25.527Z,50.43
2018-04-15T05:28:32.402Z,60.20
2018-04-15T05:29:38.014Z,55.97
2018-04-15T05:30:42.985Z,56.43
2018-04-15T05:31:53.218Z,55.37
2018-04-15T05:33:00.988Z,57.13
2018-04-15T05:34:06.436Z,57.53
2018-04-15T05:35:10.667Z,58.10
2018-04-15T05:36:14.874Z,57.30
2018-04-15T05:37:27.442Z,57.40
2018-04-15T05:38:33.871Z,59.60
2018-04-15T05:39:38.170Z,57.23
2018-04-15T05:40:42.396Z,60.57
2018-04-15T05:41:46.587Z,59.10
2018-04-15T05:42:57.889Z,57.07
2018-04-15T05:44:04.297Z,55.70
2018-04-15T05:45:09.275Z,61.20
2018-04-15T05:46:13.566Z,60.07
2018-04-15T05:47:21.716Z,55.90
2018-04-15T05:48:30.190Z,58.63
2018-04-15T05:49:35.717Z,57.00
2018-04-15T05:50:39.936Z,55.53
2018-04-15T05:51:44.146Z,59.57
2018-04-15T05:52:54.786Z,61.10
2018-04-15T05:54:01.653Z,55.50
2018-04-15T05:55:06.908Z,57.23
2018-04-15T05:56:11.117Z,57.43
2018-04-15T05:57:15.425Z,56.83
2018-04-15T05:58:29.737Z,54.37
2018-04-15T05:59:35.476Z,56.70
2018-04-15T06:00:40.675Z,52.20
2018-04-15T06:01:44.888Z,54.93
2018-04-15T06:02:54.452Z,55.33
2018-04-15T06:04:01.678Z,55.60
2018-04-15T06:05:06.872Z,56.00
2018-04-15T06:06:11.553Z,53.50
2018-04-15T06:07:15.758Z,55.50
2018-04-15T06:08:27.248Z,59.90
2018-04-15T06:09:33.397Z,56.50
2018-04-15T06:10:37.772Z,57.87
2018-04-15T06:11:42.009Z,53.73
2018-04-15T06:12:50.866Z,56.63
2018-04-15T06:14:00.152Z,53.43
2018-04-15T06:15:06.005Z,56.10
2018-04-15T06:16:11.023Z,55.27
2018-04-15T06:17:15.375Z,54.77
2018-04-15T06:18:26.084Z,54.43
2018-04-15T06:19:33.658Z,59.73
2018-04-15T06:20:37.886Z,57.43
2018-04-15T06:21:42.142Z,58.77
2018-04-15T06:22:49.388Z,60.30
2018-04-15T06:23:57.043Z,59.80
2018-04-15T06:25:02.173Z,57.43
2018-04-15T06:26:07.210Z,61.93
2018-04-15T06:27:11.503Z,57.60
2018-04-15T06:28:15.718Z,59.90
2018-04-15T06:29:25.575Z,59.77
2018-04-15T06:30:34.056Z,56.23
2018-04-15T06:31:38.348Z,60.37
2018-04-15T06:32:42.684Z,59.60
2018-04-15T06:33:48.101Z,58.80
2018-04-15T06:34:54.801Z,60.93
2018-04-15T06:36:01.117Z,61.70
2018-04-15T06:37:05.409Z,64.33
2018-04-15T06:38:09.783Z,57.00
2018-04-15T06:39:14.100Z,59.67
2018-04-15T06:40:21.965Z,57.10
2018-04-15T06:41:28.338Z,58.37
2018-04-15T06:42:33.273Z,55.17
2018-04-15T06:43:37.561Z,58.50
2018-04-15T06:44:41.810Z,58.50
2018-04-15T06:45:46.025Z,59.80
2018-04-15T06:46:54.847Z,59.90
2018-04-15T06:48:00.145Z,62.20
2018-04-15T06:49:05.370Z,60.53
2018-04-15T06:50:09.602Z,63.47
2018-04-15T06:51:14.592Z,60.70
2018-04-15T06:52:22.328Z,57.73
2018-04-15T06:53:27.845Z,61.67
2018-04-15T06:54:34.036Z,55.93
2018-04-15T06:55:38.554Z,57.77
2018-04-15T06:56:42.765Z,58.23
2018-04-15T06:57:47.770Z,58.50
2018-04-15T06:58:56.576Z,59.47
2018-04-15T07:00:04.227Z,58.37
2018-04-15T07:01:08.639Z,56.03
2018-04-15T07:02:12.836Z,58.10
2018-04-15T07:03:19.428Z,57.77
2018-04-15T07:04:27.021Z,56.47
2018-04-15T07:05:33.045Z,57.47
2018-04-15T07:06:37.367Z,72.10
2018-04-15T07:07:41.569Z,59.47
2018-04-15T07:08:46.568Z,57.27
2018-04-15T07:10:00.329Z,60.30
2018-04-15T07:11:05.722Z,59.00
2018-04-15T07:12:09.937Z,66.10
2018-04-15T07:13:14.398Z,62.10
2018-04-15T07:14:24.320Z,58.60
2018-04-15T07:15:31.606Z,60.07
2018-04-15T07:16:36.019Z,64.17
2018-04-15T07:17:41.043Z,61.67
2018-04-15T07:18:48.640Z,62.17
2018-04-15T07:19:55.876Z,58.13
2018-04-15T07:21:06.237Z,60.97
2018-04-15T07:22:12.371Z,58.30
2018-04-15T07:23:16.584Z,59.23
2018-04-15T07:24:23.548Z,64.20
2018-04-15T07:25:29.523Z,59.80
2018-04-15T07:26:33.852Z,57.73
2018-04-15T07:27:38.289Z,58.60
2018-04-15T07:28:42.565Z,57.30
2018-04-15T07:29:50.319Z,59.53
2018-04-15T07:30:56.034Z,55.40
2018-04-15T07:32:02.055Z,57.27
2018-04-15T07:33:06.333Z,58.30
2018-04-15T07:34:11.304Z,58.53
2018-04-15T07:35:15.587Z,57.93
2018-04-15T07:36:23.871Z,57.70
2018-04-15T07:37:29.175Z,59.67
2018-04-15T07:38:34.743Z,60.60
2018-04-15T07:39:39.803Z,58.30
2018-04-15T07:40:44.106Z,60.87
2018-04-15T07:41:50.905Z,58.13
2018-04-15T07:42:57.136Z,55.13
2018-04-15T07:44:02.291Z,58.00
2018-04-15T07:45:06.524Z,56.03
2018-04-15T07:46:10.743Z,55.97
2018-04-15T07:47:15.014Z,54.07
2018-04-15T07:48:20.351Z,55.30
2018-04-15T07:49:25.980Z,57.77
2018-04-15T07:50:31.993Z,55.77
2018-04-15T07:51:36.403Z,60.73
2018-04-15T07:52:40.633Z,53.33
2018-04-15T07:53:44.883Z,59.40
2018-04-15T07:54:55.115Z,55.57
2018-04-15T07:56:01.321Z,57.80
2018-04-15T07:57:06.045Z,61.20
2018-04-15T07:58:10.253Z,56.10
2018-04-15T07:59:14.675Z,57.13
2018-04-15T08:00:23.899Z,56.40
2018-04-15T08:01:30.258Z,56.00
2018-04-15T08:02:34.887Z,57.07
2018-04-15T08:03:39.337Z,55.33
2018-04-15T08:04:43.568Z,55.03
2018-04-15T08:05:52.942Z,55.77
2018-04-15T08:06:58.776Z,57.80
2018-04-15T08:08:03.357Z,58.07
2018-04-15T08:09:07.660Z,54.40
2018-04-15T08:10:11.884Z,55.40
2018-04-15T08:11:17.605Z,49.27
2018-04-15T08:12:23.697Z,52.80
2018-04-15T08:13:28.466Z,53.13
2018-04-15T08:14:33.076Z,48.97
2018-04-15T08:15:37.284Z,48.20
2018-04-15T08:16:41.522Z,50.17
2018-04-15T08:17:45.807Z,53.10
2018-04-15T08:18:53.837Z,51.77
2018-04-15T08:19:58.817Z,49.90
2018-04-15T08:21:03.512Z,52.50
2018-04-15T08:22:08.579Z,54.00
2018-04-15T08:23:12.892Z,51.83
2018-04-15T08:24:17.422Z,53.10
2018-04-15T08:25:24.601Z,52.90
2018-04-15T08:26:30.548Z,50.70
2018-04-15T08:27:35.146Z,55.63
2018-04-15T08:28:39.381Z,57.47
2018-04-15T08:29:43.706Z,57.77
2018-04-15T08:30:48.963Z,55.43
2018-04-15T08:31:56.137Z,54.93
2018-04-15T08:33:01.310Z,60.03
2018-04-15T08:34:05.686Z,54.87
2018-04-15T08:35:10.683Z,50.60
2018-04-15T08:36:14.892Z,51.40
2018-04-15T08:37:20.149Z,50.30
2018-04-15T08:38:25.684Z,48.27
2018-04-15T08:39:31.352Z,46.53
2018-04-15T08:40:35.890Z,45.20
2018-04-15T08:41:41.211Z,49.43
2018-04-15T08:42:45.424Z,48.90
2018-04-15T08:43:56.064Z,46.40
2018-04-15T08:45:02.219Z,45.07
2018-04-15T08:46:06.681Z,46.13
2018-04-15T08:47:11.834Z,41.47
2018-04-15T08:48:16.049Z,38.97
2018-04-15T08:49:25.864Z,40.37
2018-04-15T08:50:33.606Z,43.07
2018-04-15T08:51:38.010Z,41.60
2018-04-15T08:52:42.230Z,43.30
2018-04-15T08:53:46.547Z,42.50
2018-04-15T08:54:56.571Z,39.73
2018-04-15T08:56:02.376Z,44.27
2018-04-15T08:57:06.751Z,43.17
2018-04-15T08:58:11.142Z,40.47
2018-04-15T08:59:15.352Z,42.77
2018-04-15T09:00:25.145Z,38.90
2018-04-15T09:01:30.790Z,38.83
2018-04-15T09:02:38.238Z,36.90
2018-04-15T09:03:42.670Z,33.40
2018-04-15T09:04:49.702Z,39.00
2018-04-15T09:05:55.184Z,37.63
2018-04-15T09:07:02.355Z,42.77
2018-04-15T09:08:06.672Z,36.20
2018-04-15T09:09:10.873Z,37.60
2018-04-15T09:10:15.080Z,35.53
2018-04-15T09:11:22.686Z,36.50
2018-04-15T09:12:28.356Z,36.97
2018-04-15T09:13:33.238Z,36.17
2018-04-15T09:14:37.465Z,36.70
2018-04-15T09:15:41.670Z,33.70
2018-04-15T09:16:45.934Z,32.67
2018-04-15T09:17:54.161Z,32.50
2018-04-15T09:18:59.466Z,31.13
2018-04-15T09:20:05.066Z,29.10
2018-04-15T09:21:09.360Z,27.57
2018-04-15T09:22:14.368Z,31.57
2018-04-15T09:23:19.929Z,26.80
2018-04-15T09:24:26.521Z,30.20
2018-04-15T09:25:32.314Z,28.20
2018-04-15T09:26:36.558Z,29.40
2018-04-15T09:27:41.550Z,31.27
2018-04-15T09:28:46.607Z,31.50
2018-04-15T09:29:55.798Z,31.23
2018-04-15T09:31:09.768Z,23.77
2018-04-15T09:32:14.759Z,24.40
2018-04-15T09:33:20.229Z,24.80
2018-04-15T09:34:24.935Z,25.40
2018-04-15T09:35:30.081Z,24.63
2018-04-15T09:36:34.639Z,23.10
2018-04-15T09:37:38.865Z,23.43
2018-04-15T09:38:43.674Z,24.47
2018-04-15T09:39:49.115Z,23.63
2018-04-15T09:40:55.717Z,24.70
2018-04-15T09:42:00.184Z,23.70
2018-04-15T09:43:05.182Z,25.00
2018-04-15T09:44:09.491Z,23.07
2018-04-15T09:45:13.714Z,25.43
2018-04-15T09:46:22.047Z,24.57
2018-04-15T09:47:28.972Z,23.33
2018-04-15T09:48:35.037Z,23.23
2018-04-15T09:49:39.268Z,22.67
2018-04-15T09:50:43.473Z,22.07
2018-04-15T09:51:50.870Z,20.73
2018-04-15T09:52:59.221Z,19.37
2018-04-15T09:54:06.808Z,20.63
2018-04-15T09:55:11.005Z,21.23
2018-04-15T09:56:15.206Z,21.53
2018-04-15T09:57:23.658Z,22.67
2018-04-15T09:58:31.892Z,20.67
2018-04-15T09:59:36.353Z,22.07
2018-04-15T10:00:40.565Z,21.23
2018-04-15T10:01:44.995Z,21.93
2018-04-15T10:02:51.763Z,21.73
2018-04-15T10:03:58.052Z,21.87
2018-04-15T10:05:04.288Z,21.77
2018-04-15T10:06:08.521Z,19.53
2018-04-15T10:07:12.748Z,19.03
2018-04-15T10:08:17.564Z,18.57
2018-04-15T10:09:24.213Z,19.47
2018-04-15T10:10:29.545Z,15.93
2018-04-15T10:11:35.278Z,18.13
2018-04-15T10:12:39.477Z,17.77
2018-04-15T10:13:43.685Z,18.37
2018-04-15T10:14:48.722Z,17.00
2018-04-15T10:15:55.436Z,17.10
2018-04-15T10:17:01.082Z,17.53
2018-04-15T10:18:05.783Z,19.03
2018-04-15T10:19:10.008Z,19.03
2018-04-15T10:20:14.422Z,18.73
2018-04-15T10:21:22.038Z,19.43
2018-04-15T10:22:30.042Z,20.30
2018-04-15T10:23:35.283Z,20.93
2018-04-15T10:24:40.252Z,21.70
2018-04-15T10:25:44.460Z,21.70
2018-04-15T10:26:53.290Z,21.63
2018-04-15T10:28:01.351Z,21.20
2018-04-15T10:29:07.136Z,20.87
2018-04-15T10:30:11.486Z,20.27
2018-04-15T10:31:15.826Z,19.73
2018-04-15T10:32:22.465Z,18.37
2018-04-15T10:33:27.913Z,18.13
2018-04-15T10:34:35.741Z,18.47
2018-04-15T10:35:40.174Z,19.70
2018-04-15T10:36:44.474Z,17.53
2018-04-15T10:37:52.867Z,18.83
2018-04-15T10:38:59.475Z,16.83
2018-04-15T10:40:04.529Z,18.00
2018-04-15T10:41:08.764Z,18.00
2018-04-15T10:42:13.101Z,17.63
2018-04-15T10:43:20.394Z,17.80
2018-04-15T10:44:26.822Z,19.67
2018-04-15T10:45:31.209Z,17.43
2018-04-15T10:46:35.498Z,17.27
2018-04-15T10:47:39.797Z,17.10
2018-04-15T10:48:44.085Z,17.20
2018-04-15T10:49:54.631Z,15.63
2018-04-15T10:51:03.224Z,15.33
2018-04-15T10:52:08.004Z,15.70
2018-04-15T10:53:12.227Z,15.80
2018-04-15T10:54:16.533Z,16.70
2018-04-15T10:55:24.773Z,16.50
2018-04-15T10:56:31.393Z,16.63
2018-04-15T10:57:36.227Z,15.90
2018-04-15T10:58:40.499Z,15.90
2018-04-15T10:59:44.733Z,12.97
2018-04-15T11:00:51.330Z,12.33
2018-04-15T11:01:57.084Z,13.60
2018-04-15T11:03:04.365Z,13.83
2018-04-15T11:04:08.602Z,14.73
2018-04-15T11:05:12.893Z,13.40
2018-04-15T11:06:17.885Z,13.77
2018-04-15T11:07:25.174Z,14.20
2018-04-15T11:08:31.413Z,12.83
2018-04-15T11:09:36.265Z,13.73
2018-04-15T11:10:40.517Z,14.70
2018-04-15T11:11:44.711Z,13.80
2018-04-15T11:12:51.564Z,14.43
2018-04-15T11:13:59.403Z,16.37
2018-04-15T11:15:05.293Z,16.60
2018-04-15T11:16:09.549Z,16.40
2018-04-15T11:17:13.772Z,15.23
2018-04-15T11:18:19.763Z,14.33
2018-04-15T11:19:27.719Z,15.33
2018-04-15T11:20:36.676Z,16.07
2018-04-15T11:21:41.117Z,16.23
2018-04-15T11:22:45.337Z,16.50
2018-04-15T11:23:51.789Z,15.17
2018-04-15T11:24:57.168Z,15.23
2018-04-15T11:26:03.165Z,16.67
2018-04-15T11:27:08.160Z,16.97
2018-04-15T11:28:12.443Z,16.27
2018-04-15T11:29:16.650Z,17.13
2018-04-15T11:30:21.351Z,16.30
2018-04-15T11:31:26.456Z,15.53
2018-04-15T11:32:31.257Z,16.20
2018-04-15T11:33:36.327Z,15.40
2018-04-15T11:34:41.695Z,16.20
2018-04-15T11:35:45.895Z,14.60
2018-04-15T11:36:50.599Z,16.40
2018-04-15T11:37:55.512Z,17.23
2018-04-15T11:39:01.653Z,16.97
2018-04-15T11:40:06.208Z,15.93
2018-04-15T11:41:10.442Z,15.20
2018-04-15T11:42:14.640Z,15.70
2018-04-15T11:43:19.659Z,16.17
2018-04-15T11:44:24.525Z,15.23
2018-04-15T11:45:29.441Z,15.37
2018-04-15T11:46:35.997Z,14.20
2018-04-15T11:47:40.613Z,16.60
2018-04-15T11:48:46.106Z,14.30
2018-04-15T11:49:53.921Z,17.43
2018-04-15T11:50:59.183Z,15.80
2018-04-15T11:52:03.942Z,15.73
2018-04-15T11:53:08.239Z,15.10
2018-04-15T11:55:32.847Z,12.20
2018-04-15T11:56:37.114Z,14.93
2018-04-15T11:57:42.082Z,13.20
2018-04-15T11:58:46.301Z,14.33
2018-04-15T11:59:54.485Z,13.70
2018-04-15T12:01:02.286Z,12.50
2018-04-15T12:02:07.353Z,11.90
2018-04-15T12:03:12.048Z,13.33
2018-04-15T12:04:16.330Z,12.93
2018-04-15T12:05:27.233Z,13.00
2018-04-15T12:06:34.720Z,13.30
2018-04-15T12:07:39.252Z,13.47
2018-04-15T12:08:43.852Z,14.97
2018-04-15T12:09:51.077Z,13.97
2018-04-15T12:10:58.185Z,12.87
2018-04-15T12:12:06.238Z,12.67
2018-04-15T12:13:10.625Z,13.27
2018-04-15T12:14:14.908Z,13.17
2018-04-15T12:15:19.922Z,14.40
2018-04-15T12:16:26.872Z,20.37
2018-04-15T12:17:35.420Z,15.50
2018-04-15T12:18:40.710Z,16.60
2018-04-15T12:19:44.914Z,12.20
2018-04-15T12:20:53.601Z,16.30
2018-04-15T12:22:00.812Z,12.50
2018-04-15T12:23:06.363Z,12.77
2018-04-15T12:24:10.599Z,13.90
2018-04-15T12:25:14.796Z,13.93
2018-04-15T12:26:33.050Z,10.83
2018-04-15T12:27:38.646Z,10.83
2018-04-15T12:28:44.293Z,10.93
2018-04-15T12:29:54.086Z,11.37
2018-04-15T12:31:02.492Z,10.30
2018-04-15T12:32:07.424Z,10.07
2018-04-15T12:33:11.624Z,11.70
2018-04-15T12:34:16.604Z,10.80
2018-04-15T12:35:24.347Z,11.40
2018-04-15T12:36:29.232Z,8.20
2018-04-15T12:37:35.915Z,7.87
2018-04-15T12:38:40.123Z,9.93
2018-04-15T12:39:44.316Z,9.17
2018-04-15T12:40:48.940Z,7.97
2018-04-15T12:41:53.853Z,8.90
2018-04-15T12:42:58.989Z,8.60
2018-04-15T12:44:03.870Z,8.13
2018-04-15T12:45:08.227Z,8.10
2018-04-15T12:46:12.486Z,8.40
2018-04-15T12:47:19.181Z,9.43
2018-04-15T12:48:26.896Z,9.07
2018-04-15T12:49:32.397Z,8.90
2018-04-15T12:50:36.710Z,9.50
2018-04-15T12:51:40.949Z,8.57
2018-04-15T12:52:45.950Z,9.03
2018-04-15T12:53:51.134Z,8.93
2018-04-15T12:54:56.410Z,8.70
2018-04-15T12:56:00.877Z,8.57
2018-04-15T12:57:05.296Z,8.80
2018-04-15T12:58:11.897Z,9.27
2018-04-15T12:59:16.215Z,6.50
2018-04-15T13:00:23.281Z,5.43
2018-04-15T13:01:29.505Z,5.87
2018-04-15T13:02:37.747Z,5.83
2018-04-15T13:03:42.367Z,5.33
2018-04-15T13:04:46.615Z,6.17
2018-04-15T13:05:52.078Z,7.10
2018-04-15T13:06:56.482Z,7.67
2018-04-15T13:08:00.876Z,7.00
2018-04-15T13:09:06.155Z,8.00
2018-04-15T13:10:10.359Z,7.57
2018-04-15T13:11:14.614Z,7.13
2018-04-15T13:12:20.816Z,7.33
2018-04-15T13:13:28.191Z,7.97
2018-04-15T13:14:34.649Z,7.13
2018-04-15T13:15:38.879Z,8.00
2018-04-15T13:16:44.019Z,9.30
2018-04-15T13:17:55.242Z,8.33
2018-04-15T13:19:01.154Z,8.83
2018-04-15T13:20:05.741Z,8.40
2018-04-15T13:21:10.030Z,8.80
2018-04-15T13:22:14.327Z,8.23
2018-04-15T13:23:20.480Z,8.23
2018-04-15T13:24:27.172Z,7.53
2018-04-15T13:25:33.873Z,8.60
2018-04-15T13:26:39.030Z,8.53
2018-04-15T13:27:43.342Z,7.40
2018-04-15T13:28:51.067Z,7.03
2018-04-15T13:29:57.338Z,6.60
2018-04-15T13:31:04.678Z,7.20
2018-04-15T13:32:09.216Z,7.53
2018-04-15T13:33:13.464Z,7.43
2018-04-15T13:34:18.866Z,8.10
2018-04-15T13:35:26.353Z,7.80
2018-04-15T13:36:31.669Z,7.27
2018-04-15T13:37:35.976Z,6.77
2018-04-15T13:38:40.171Z,7.17
2018-04-15T13:39:45.142Z,7.00
2018-04-15T13:40:52.118Z,6.77
2018-04-15T13:41:58.658Z,6.37
2018-04-15T13:43:03.934Z,6.13
2018-04-15T13:44:08.142Z,4.90
2018-04-15T13:45:12.359Z,4.23
2018-04-15T13:46:16.590Z,3.47
2018-04-15T13:47:25.610Z,5.07
2018-04-15T13:48:32.594Z,3.30
2018-04-15T13:49:37.565Z,2.53
2018-04-15T13:50:41.873Z,3.13
2018-04-15T13:51:46.539Z,2.80
2018-04-15T13:52:52.891Z,2.70
2018-04-15T13:53:58.531Z,2.70
2018-04-15T13:55:02.935Z,2.80
2018-04-15T13:56:08.044Z,2.50
2018-04-15T13:57:12.306Z,2.90
2018-04-15T13:58:16.675Z,2.60
2018-04-15T13:59:26.810Z,2.57
2018-04-15T14:00:32.478Z,2.63
2018-04-15T14:01:36.804Z,2.60
2018-04-15T14:02:41.005Z,2.80
2018-04-15T14:03:45.211Z,3.20
2018-04-15T14:04:53.059Z,3.00
2018-04-15T14:06:01.801Z,3.00
2018-04-15T14:07:07.319Z,3.27
2018-04-15T14:08:11.567Z,2.70
2018-04-15T14:09:15.761Z,3.00
2018-04-15T14:10:22.104Z,2.63
2018-04-15T14:11:27.608Z,3.07
2018-04-15T14:12:35.692Z,2.83
2018-04-15T14:13:39.902Z,2.93
2018-04-15T14:14:44.119Z,3.27
2018-04-15T14:15:50.807Z,2.90